Time;durP1;ratioP1;P1;durP2;ratioP2;P2;SDS_P1;SDS_P2;PMS_P1;PMS_P2;Temp;Humidity;BMP_temperature;BMP_pressure;BME280_temperature;BME280_humidity;BME280_pressure;Samples;Min_cycle;Max_cycle;Signal;HPM_P1;HPM_P2
2021/07/12 00:01:07;;;;;;;;;;;21.60;99.90;;;;;;4988159;28;20077;-58
2021/07/12 00:03:32;;;;;;;;;;;21.50;99.90;;;;;;4987493;28;20098;-58
2021/07/12 00:05:58;;;;;;;;;;;21.60;99.90;;;;;;4987318;28;20057;-59
2021/07/12 00:08:24;;;;;;;;;;;21.60;99.90;;;;;;4987597;28;19990;-58
2021/07/12 00:10:50;;;;;;;;;;;21.50;99.90;;;;;;4987503;28;19986;-59
2021/07/12 00:13:17;;;;;;;;;;;21.50;99.90;;;;;;4987019;28;19993;-59
2021/07/12 00:15:42;;;;;;;;;;;21.50;99.90;;;;;;4987311;28;19987;-59
2021/07/12 00:18:08;;;;;;;;;;;21.50;99.90;;;;;;4987965;28;20559;-58
2021/07/12 00:20:33;;;;;;;;;;;21.50;99.90;;;;;;4987514;28;20037;-59
2021/07/12 00:22:59;;;;;;;;;;;21.30;99.90;;;;;;4986904;28;19989;-59
2021/07/12 00:25:26;;;;;;;;;;;21.30;99.90;;;;;;4987343;28;20002;-59
2021/07/12 00:27:52;;;;;;;;;;;21.30;99.90;;;;;;4986861;28;19987;-59
2021/07/12 00:30:20;;;;;;;;;;;21.50;99.90;;;;;;4987211;28;19990;-58
2021/07/12 00:32:46;;;;;;;;;;;21.50;99.90;;;;;;4987083;28;19990;-59
2021/07/12 00:35:12;;;;;;;;;;;21.20;99.90;;;;;;4987231;28;20581;-59
2021/07/12 00:37:38;;;;;;;;;;;21.20;99.90;;;;;;4987593;28;19987;-58
2021/07/12 00:40:04;;;;;;;;;;;21.30;99.90;;;;;;4986694;28;19986;-59
2021/07/12 00:42:30;;;;;;;;;;;21.40;99.90;;;;;;4986967;28;19987;-58
2021/07/12 00:44:56;;;;;;;;;;;21.30;99.90;;;;;;4987213;28;20015;-59
2021/07/12 00:47:21;;;;;;;;;;;21.60;99.90;;;;;;4986594;28;20445;-58
2021/07/12 00:49:47;;;;;;;;;;;21.70;99.90;;;;;;4986930;28;19982;-59
2021/07/12 00:52:13;;;;;;;;;;;21.70;99.90;;;;;;4986582;28;20544;-59
2021/07/12 00:54:39;;;;;;;;;;;21.80;99.90;;;;;;4987153;28;20026;-58
2021/07/12 00:57:06;;;;;;;;;;;21.90;99.90;;;;;;4986189;28;20052;-59
2021/07/12 00:59:32;;;;;;;;;;;21.80;99.90;;;;;;4986804;28;19991;-59
2021/07/12 01:01:57;;;;;;;;;;;21.80;99.90;;;;;;4986334;28;20349;-58
2021/07/12 01:04:24;;;;;;;;;;;21.80;99.90;;;;;;4986604;28;20006;-59
2021/07/12 01:06:49;;;;;;;;;;;21.60;99.90;;;;;;4986510;28;20346;-59
2021/07/12 01:09:15;;;;;;;;;;;21.50;99.90;;;;;;4986143;28;20002;-58
2021/07/12 01:11:43;;;;;;;;;;;21.40;99.90;;;;;;4986732;28;19987;-59
2021/07/12 01:14:20;;;;;;;;;;;21.30;99.90;;;;;;4986659;28;20010;-58
2021/07/12 01:17:04;;;;;;;;;;;21.50;99.90;;;;;;4985581;28;19986;-59
2021/07/12 01:19:52;;;;;;;;;;;21.40;99.90;;;;;;4986921;28;19983;-58
2021/07/12 01:22:24;;;;;;;;;;;21.30;99.90;;;;;;4986399;28;20011;-58
2021/07/12 01:24:50;;;;;;;;;;;21.40;99.90;;;;;;4986858;28;20093;-58
2021/07/12 01:27:31;;;;;;;;;;;21.40;99.90;;;;;;4986007;28;20145;-58
2021/07/12 01:30:11;;;;;;;;;;;21.50;99.90;;;;;;4986322;28;19994;-59
2021/07/12 01:32:40;;;;;;;;;;;21.30;99.90;;;;;;4986479;28;19993;-59
2021/07/12 01:35:08;;;;;;;;;;;21.10;99.90;;;;;;4986121;28;19987;-59
2021/07/12 01:37:37;;;;;;;;;;;21.00;99.90;;;;;;4986177;28;19987;-59
2021/07/12 01:40:04;;;;;;;;;;;21.10;99.90;;;;;;4985733;28;19983;-59
2021/07/12 01:42:35;;;;;;;;;;;21.00;99.90;;;;;;4986243;28;19993;-59
2021/07/12 01:45:21;;;;;;;;;;;21.00;99.90;;;;;;4985797;28;20003;-58
2021/07/12 01:47:55;;;;;;;;;;;21.40;99.90;;;;;;4985768;28;20000;-59
2021/07/12 01:50:27;;;;;;;;;;;21.50;99.90;;;;;;4986531;28;19988;-58
2021/07/12 01:53:11;;;;;;;;;;;21.50;99.90;;;;;;4986725;28;19998;-59
2021/07/12 01:55:54;;;;;;;;;;;21.20;99.90;;;;;;4986171;28;20073;-59
2021/07/12 01:58:42;;;;;;;;;;;21.50;99.90;;;;;;4986285;28;19990;-59
2021/07/12 02:01:10;;;;;;;;;;;21.70;99.90;;;;;;4985916;28;19990;-59
2021/07/12 02:03:37;;;;;;;;;;;21.90;99.90;;;;;;4986049;28;20026;-58
2021/07/12 02:06:05;;;;;;;;;;;21.80;99.90;;;;;;4985814;28;20077;-59
2021/07/12 02:08:32;;;;;;;;;;;21.90;99.90;;;;;;4986081;28;20010;-59
2021/07/12 02:10:59;;;;;;;;;;;21.80;99.90;;;;;;4985967;28;19987;-59
2021/07/12 02:13:25;;;;;;;;;;;21.90;99.90;;;;;;4986719;28;20411;-59
2021/07/12 02:15:51;;;;;;;;;;;21.50;99.90;;;;;;4990146;28;19989;-59
2021/07/12 02:18:18;;;;;;;;;;;21.50;99.90;;;;;;4989395;28;20025;-59
2021/07/12 02:20:46;;;;;;;;;;;21.70;99.90;;;;;;4989428;28;20002;-59
2021/07/12 02:23:13;;;;;;;;;;;21.70;99.90;;;;;;4989176;28;20428;-58
2021/07/12 02:25:40;;;;;;;;;;;21.60;99.90;;;;;;4989679;28;20046;-58
2021/07/12 02:28:06;;;;;;;;;;;21.50;99.90;;;;;;4989600;28;20030;-59
2021/07/12 02:30:31;;;;;;;;;;;21.40;99.90;;;;;;4989354;28;20457;-59
2021/07/12 02:32:58;;;;;;;;;;;21.20;99.90;;;;;;4989389;28;19983;-59
2021/07/12 02:35:25;;;;;;;;;;;21.10;99.90;;;;;;4989451;28;20001;-59
2021/07/12 02:37:50;;;;;;;;;;;21.00;99.90;;;;;;4989688;28;20010;-58
2021/07/12 02:40:18;;;;;;;;;;;21.10;99.90;;;;;;4989012;28;19987;-59
2021/07/12 02:42:45;;;;;;;;;;;21.20;99.90;;;;;;4989370;28;19986;-59
2021/07/12 02:45:11;;;;;;;;;;;21.20;99.90;;;;;;4988805;28;20133;-59
2021/07/12 02:47:37;;;;;;;;;;;21.30;99.90;;;;;;4989110;28;20070;-58
2021/07/12 02:50:04;;;;;;;;;;;21.40;99.90;;;;;;4988786;28;19987;-58
2021/07/12 02:52:32;;;;;;;;;;;21.50;99.90;;;;;;4988599;28;20010;-59
2021/07/12 02:54:59;;;;;;;;;;;21.60;99.90;;;;;;4988743;28;20001;-58
2021/07/12 02:57:24;;;;;;;;;;;21.60;99.90;;;;;;4989031;28;20065;-59
2021/07/12 02:59:50;;;;;;;;;;;21.60;99.90;;;;;;4989589;28;20077;-59
2021/07/12 03:02:15;;;;;;;;;;;21.60;99.90;;;;;;4988828;28;19991;-58
2021/07/12 03:04:41;;;;;;;;;;;21.60;99.90;;;;;;4988957;28;20015;-59
2021/07/12 03:07:27;;;;;;;;;;;21.70;99.90;;;;;;4988146;28;19982;-59
2021/07/12 03:09:55;;;;;;;;;;;21.60;99.90;;;;;;4988959;28;19986;-59
2021/07/12 03:12:39;;;;;;;;;;;21.60;99.90;;;;;;4989240;28;19983;-58
2021/07/12 03:15:06;;;;;;;;;;;21.50;99.90;;;;;;4988059;28;20062;-58
2021/07/12 03:17:33;;;;;;;;;;;21.50;99.90;;;;;;4988224;28;20389;-58
2021/07/12 03:20:00;;;;;;;;;;;21.40;99.90;;;;;;4988658;28;19994;-58
2021/07/12 03:22:26;;;;;;;;;;;21.30;99.90;;;;;;4987618;28;20018;-59
2021/07/12 03:24:53;;;;;;;;;;;21.10;99.90;;;;;;4982935;28;20061;-58
2021/07/12 03:27:22;;;;;;;;;;;21.10;99.90;;;;;;4987989;28;19986;-59
2021/07/12 03:29:49;;;;;;;;;;;21.20;99.90;;;;;;4987406;28;19990;-59
2021/07/12 03:32:19;;;;;;;;;;;21.30;99.90;;;;;;5002065;28;20038;-59
2021/07/12 03:34:44;;;;;;;;;;;21.40;99.90;;;;;;4987014;28;19990;-59
2021/07/12 03:37:11;;;;;;;;;;;21.40;99.90;;;;;;4986730;28;19987;-59
2021/07/12 03:39:38;;;;;;;;;;;21.40;99.90;;;;;;4987235;28;20491;-58
2021/07/12 03:42:05;;;;;;;;;;;21.40;99.90;;;;;;4987143;28;20141;-59
2021/07/12 03:44:31;;;;;;;;;;;21.40;99.90;;;;;;4987442;28;19983;-58
2021/07/12 03:46:56;;;;;;;;;;;21.30;99.90;;;;;;4986862;28;20002;-58
2021/07/12 03:49:22;;;;;;;;;;;21.30;99.90;;;;;;4987525;28;19982;-58
2021/07/12 03:51:50;;;;;;;;;;;21.20;99.90;;;;;;4986845;28;19987;-58
2021/07/12 03:54:16;;;;;;;;;;;21.30;99.90;;;;;;4986774;28;19998;-58
2021/07/12 03:56:42;;;;;;;;;;;21.20;99.90;;;;;;4986981;28;20404;-58
2021/07/12 03:59:08;;;;;;;;;;;21.20;99.90;;;;;;4986899;28;19983;-59
2021/07/12 04:01:35;;;;;;;;;;;21.30;99.90;;;;;;4986847;28;20464;-58
2021/07/12 04:04:01;;;;;;;;;;;21.10;99.90;;;;;;4986641;28;20449;-59
2021/07/12 04:06:29;;;;;;;;;;;21.00;99.90;;;;;;4986328;28;20011;-59
2021/07/12 04:08:55;;;;;;;;;;;21.10;99.90;;;;;;4987076;28;20357;-59
2021/07/12 04:11:22;;;;;;;;;;;21.10;99.90;;;;;;4987212;28;19987;-58
2021/07/12 04:13:47;;;;;;;;;;;21.10;99.90;;;;;;4986844;28;19983;-59
2021/07/12 04:16:13;;;;;;;;;;;21.10;99.90;;;;;;4986077;28;20105;-59
2021/07/12 04:18:39;;;;;;;;;;;21.10;99.90;;;;;;4986453;28;20057;-58
2021/07/12 04:21:05;;;;;;;;;;;21.20;99.90;;;;;;4986016;28;20073;-58
2021/07/12 04:23:31;;;;;;;;;;;21.20;99.90;;;;;;4986779;28;19987;-58
2021/07/12 04:25:56;;;;;;;;;;;21.10;99.90;;;;;;4986217;28;20007;-59
2021/07/12 04:28:22;;;;;;;;;;;21.10;99.90;;;;;;4986770;28;20467;-59
2021/07/12 04:30:48;;;;;;;;;;;21.10;99.90;;;;;;4986431;28;20465;-58
2021/07/12 04:33:13;;;;;;;;;;;21.00;99.90;;;;;;4986313;28;20030;-59
2021/07/12 04:35:40;;;;;;;;;;;20.90;99.90;;;;;;4985708;28;19994;-59
2021/07/12 04:38:05;;;;;;;;;;;21.00;99.90;;;;;;4985681;28;19991;-59
2021/07/12 04:40:31;;;;;;;;;;;20.90;99.90;;;;;;4986372;28;20386;-58
2021/07/12 04:42:56;;;;;;;;;;;20.50;99.90;;;;;;4986435;28;19983;-59
2021/07/12 04:45:25;;;;;;;;;;;20.50;99.90;;;;;;4986607;28;20006;-58
2021/07/12 04:47:51;;;;;;;;;;;20.50;99.90;;;;;;4986647;28;19986;-59
2021/07/12 04:50:17;;;;;;;;;;;20.50;99.90;;;;;;4985768;28;20671;-58
2021/07/12 04:52:43;;;;;;;;;;;20.60;99.90;;;;;;4986133;28;20093;-58
2021/07/12 04:55:09;;;;;;;;;;;20.50;99.90;;;;;;4985752;28;20077;-58
2021/07/12 04:57:35;;;;;;;;;;;20.40;99.90;;;;;;4985921;28;20025;-59
2021/07/12 05:00:03;;;;;;;;;;;20.30;99.90;;;;;;4985710;28;20029;-59
2021/07/12 05:02:29;;;;;;;;;;;20.40;99.90;;;;;;4985952;28;20010;-59
2021/07/12 05:04:54;;;;;;;;;;;20.40;99.90;;;;;;4986185;28;20448;-58
2021/07/12 05:07:21;;;;;;;;;;;20.30;99.90;;;;;;4986086;28;20445;-58
2021/07/12 05:09:46;;;;;;;;;;;20.20;99.90;;;;;;4985833;28;19986;-59
2021/07/12 05:12:15;;;;;;;;;;;20.30;99.90;;;;;;4985599;28;19990;-58
2021/07/12 05:14:42;;;;;;;;;;;20.20;99.90;;;;;;4984629;28;19983;-59
2021/07/12 05:17:10;;;;;;;;;;;20.20;99.90;;;;;;4985617;28;19986;-58
2021/07/12 05:19:37;;;;;;;;;;;20.20;99.90;;;;;;4985443;28;20045;-59
2021/07/12 05:22:03;;;;;;;;;;;20.30;99.90;;;;;;4984891;28;19993;-58
2021/07/12 05:24:28;;;;;;;;;;;20.40;99.90;;;;;;4985235;28;20082;-59
2021/07/12 05:26:54;;;;;;;;;;;20.50;99.90;;;;;;4986207;28;19991;-58
2021/07/12 05:29:19;;;;;;;;;;;20.60;99.90;;;;;;4985079;28;20180;-59
2021/07/12 05:31:46;;;;;;;;;;;20.60;99.90;;;;;;4985268;28;20109;-58
2021/07/12 05:34:12;;;;;;;;;;;20.60;99.90;;;;;;4985395;28;20030;-59
2021/07/12 05:36:37;;;;;;;;;;;20.80;99.90;;;;;;4985292;28;20038;-59
2021/07/12 05:39:03;;;;;;;;;;;20.90;99.90;;;;;;4985009;28;20441;-59
2021/07/12 05:41:29;;;;;;;;;;;21.00;99.90;;;;;;4985672;28;20022;-59
2021/07/12 05:43:55;;;;;;;;;;;21.00;99.90;;;;;;4986224;28;20019;-59
2021/07/12 05:46:20;;;;;;;;;;;21.10;99.90;;;;;;4985008;28;20454;-59
2021/07/12 05:48:46;;;;;;;;;;;21.10;99.90;;;;;;4988363;28;20156;-58
2021/07/12 05:51:11;;;;;;;;;;;21.10;99.90;;;;;;4988690;28;20581;-58
2021/07/12 05:53:37;;;;;;;;;;;21.10;99.90;;;;;;5004236;28;20044;-59
2021/07/12 05:56:03;;;;;;;;;;;21.20;99.90;;;;;;4989140;28;20041;-59
2021/07/12 05:58:28;;;;;;;;;;;21.30;99.90;;;;;;4989132;28;20074;-59
2021/07/12 06:00:55;;;;;;;;;;;21.50;99.90;;;;;;4989831;28;20377;-59
2021/07/12 06:03:22;;;;;;;;;;;21.60;99.90;;;;;;4989176;28;20368;-59
2021/07/12 06:05:48;;;;;;;;;;;21.60;99.90;;;;;;4989095;28;20014;-59
2021/07/12 06:08:13;;;;;;;;;;;21.70;99.90;;;;;;4989883;28;20050;-59
2021/07/12 06:10:40;;;;;;;;;;;21.70;99.90;;;;;;4986838;28;19987;-59
2021/07/12 06:13:06;;;;;;;;;;;21.70;99.90;;;;;;4971210;28;20047;-58
2021/07/12 06:15:31;;;;;;;;;;;21.70;99.90;;;;;;4997693;28;19991;-59
2021/07/12 06:17:57;;;;;;;;;;;21.70;99.90;;;;;;4989703;28;20006;-59
2021/07/12 06:20:23;;;;;;;;;;;21.70;99.90;;;;;;4989357;28;19991;-58
2021/07/12 06:22:49;;;;;;;;;;;21.70;99.90;;;;;;4990164;28;20037;-58
2021/07/12 06:25:17;;;;;;;;;;;21.70;99.90;;;;;;4989338;28;20097;-59
2021/07/12 06:27:42;;;;;;;;;;;21.70;99.90;;;;;;4974235;28;19999;-59
2021/07/12 06:30:09;;;;;;;;;;;21.80;99.90;;;;;;4970402;28;19983;-59
2021/07/12 06:32:35;;;;;;;;;;;21.70;99.90;;;;;;4970464;28;20057;-58
2021/07/12 06:35:01;;;;;;;;;;;21.70;99.90;;;;;;4970001;28;19987;-58
2021/07/12 06:37:26;;;;;;;;;;;21.70;99.90;;;;;;4970674;28;19994;-58
2021/07/12 06:39:52;;;;;;;;;;;21.70;99.90;;;;;;4971355;28;20461;-58
2021/07/12 06:42:18;;;;;;;;;;;21.70;99.90;;;;;;4970495;28;19993;-59
2021/07/12 06:44:43;;;;;;;;;;;21.70;99.90;;;;;;4987117;28;20049;-59
2021/07/12 06:47:09;;;;;;;;;;;21.60;99.90;;;;;;4989566;28;19991;-59
2021/07/12 06:49:34;;;;;;;;;;;21.60;99.90;;;;;;4989800;28;20495;-59
2021/07/12 06:52:00;;;;;;;;;;;21.70;99.90;;;;;;4989545;28;19983;-59
2021/07/12 06:54:26;;;;;;;;;;;21.60;99.90;;;;;;4989478;28;20049;-59
2021/07/12 06:56:51;;;;;;;;;;;21.70;99.90;;;;;;4990073;28;19994;-59
2021/07/12 06:59:17;;;;;;;;;;;21.70;99.90;;;;;;4990603;28;19991;-60
2021/07/12 07:01:44;;;;;;;;;;;21.80;99.90;;;;;;4988359;28;20425;-59
2021/07/12 07:04:10;;;;;;;;;;;21.80;99.90;;;;;;4988395;28;20033;-59
2021/07/12 07:06:36;;;;;;;;;;;21.80;99.90;;;;;;4989175;28;20011;-59
2021/07/12 07:09:02;;;;;;;;;;;21.80;99.90;;;;;;4988524;28;20010;-59
2021/07/12 07:11:27;;;;;;;;;;;21.80;99.90;;;;;;4990720;28;20002;-58
2021/07/12 07:13:53;;;;;;;;;;;21.90;99.90;;;;;;4990879;28;20022;-59
2021/07/12 07:16:18;;;;;;;;;;;21.90;99.90;;;;;;4990388;28;20035;-59
2021/07/12 07:18:44;;;;;;;;;;;21.90;99.90;;;;;;4989896;28;20061;-59
2021/07/12 07:21:09;;;;;;;;;;;21.90;99.90;;;;;;4990288;28;19995;-58
2021/07/12 07:23:35;;;;;;;;;;;22.00;99.90;;;;;;4990496;28;20040;-59
2021/07/12 07:26:01;;;;;;;;;;;22.00;99.90;;;;;;5004730;28;19999;-59
2021/07/12 07:28:26;;;;;;;;;;;22.10;99.90;;;;;;4988286;28;20037;-59
2021/07/12 07:30:52;;;;;;;;;;;22.10;99.90;;;;;;4990165;28;19994;-58
2021/07/12 07:33:18;;;;;;;;;;;22.10;99.90;;;;;;4990155;28;19987;-59
2021/07/12 07:35:44;;;;;;;;;;;22.10;99.90;;;;;;4990353;28;20523;-59
2021/07/12 07:38:09;;;;;;;;;;;22.10;99.90;;;;;;4989650;28;19990;-58
2021/07/12 07:40:36;;;;;;;;;;;22.20;99.90;;;;;;4988951;28;19991;-59
2021/07/12 07:43:02;;;;;;;;;;;22.20;99.90;;;;;;4989067;28;19995;-59
2021/07/12 07:45:28;;;;;;;;;;;22.30;99.90;;;;;;4988731;28;20018;-59
2021/07/12 07:47:54;;;;;;;;;;;22.30;99.90;;;;;;4989489;28;19982;-58
2021/07/12 07:50:20;;;;;;;;;;;22.30;99.90;;;;;;4987984;28;20472;-59
2021/07/12 07:52:45;;;;;;;;;;;22.40;99.90;;;;;;4969537;28;19994;-58
2021/07/12 07:55:12;;;;;;;;;;;22.40;99.90;;;;;;4987211;28;20002;-60
2021/07/12 07:57:41;;;;;;;;;;;22.40;99.90;;;;;;4988319;28;19986;-59
2021/07/12 08:00:09;;;;;;;;;;;22.50;99.90;;;;;;4987462;28;19994;-59
2021/07/12 08:02:35;;;;;;;;;;;22.60;99.90;;;;;;4989088;28;19990;-58
2021/07/12 08:05:00;;;;;;;;;;;22.60;99.90;;;;;;4988115;28;20404;-59
2021/07/12 08:07:26;;;;;;;;;;;22.70;99.90;;;;;;4988676;28;20085;-59
2021/07/12 08:09:51;;;;;;;;;;;22.80;99.90;;;;;;4988227;28;20388;-59
2021/07/12 08:12:18;;;;;;;;;;;22.90;99.90;;;;;;4970040;28;19991;-59
2021/07/12 08:14:44;;;;;;;;;;;23.00;99.90;;;;;;4983961;28;20420;-59
2021/07/12 08:17:11;;;;;;;;;;;23.10;99.90;;;;;;4987250;28;19995;-59
2021/07/12 08:19:36;;;;;;;;;;;23.20;99.90;;;;;;4988664;28;19991;-58
2021/07/12 08:22:02;;;;;;;;;;;23.20;99.90;;;;;;4988335;28;20064;-59
2021/07/12 08:24:27;;;;;;;;;;;23.20;99.90;;;;;;4987591;28;19983;-59
2021/07/12 08:26:53;;;;;;;;;;;23.30;99.90;;;;;;4988416;28;20050;-59
2021/07/12 08:29:18;;;;;;;;;;;23.30;99.90;;;;;;4987844;28;19987;-58
2021/07/12 08:31:46;;;;;;;;;;;23.30;99.90;;;;;;4977656;28;19991;-58
2021/07/12 08:34:12;;;;;;;;;;;23.40;99.90;;;;;;4980956;28;20476;-59
2021/07/12 08:36:37;;;;;;;;;;;23.40;99.90;;;;;;4988166;28;20010;-59
2021/07/12 08:39:03;;;;;;;;;;;23.40;99.90;;;;;;4987947;28;19987;-58
2021/07/12 08:41:29;;;;;;;;;;;23.50;99.90;;;;;;4988103;28;20019;-59
2021/07/12 08:43:54;;;;;;;;;;;23.50;99.90;;;;;;4977812;28;20369;-59
2021/07/12 08:46:21;;;;;;;;;;;23.60;99.90;;;;;;4968390;28;20113;-58
2021/07/12 08:48:47;;;;;;;;;;;23.60;99.90;;;;;;4968479;28;19998;-59
2021/07/12 08:51:14;;;;;;;;;;;23.70;99.90;;;;;;4975938;28;20081;-59
2021/07/12 08:53:41;;;;;;;;;;;23.80;99.90;;;;;;4987742;28;20003;-58
2021/07/12 08:56:06;;;;;;;;;;;23.80;99.90;;;;;;4987451;28;20392;-58
2021/07/12 08:58:34;;;;;;;;;;;23.90;99.90;;;;;;4985907;28;19998;-59
2021/07/12 09:01:03;;;;;;;;;;;23.90;99.90;;;;;;4987553;28;20017;-59
2021/07/12 09:03:33;;;;;;;;;;;23.90;99.90;;;;;;4987624;28;19983;-59
2021/07/12 09:06:04;;;;;;;;;;;23.90;99.90;;;;;;4987538;28;20377;-59
2021/07/12 09:08:42;;;;;;;;;;;24.00;99.90;;;;;;4986615;28;20537;-59
2021/07/12 09:11:20;;;;;;;;;;;24.10;99.90;;;;;;4985389;28;19995;-59
2021/07/12 09:13:50;;;;;;;;;;;24.30;99.90;;;;;;4987942;28;19994;-59
2021/07/12 09:16:34;;;;;;;;;;;24.50;99.90;;;;;;4995566;28;20383;-59
2021/07/12 09:19:04;;;;;;;;;;;24.50;99.90;;;;;;5004126;28;20081;-59
2021/07/12 09:21:36;;;;;;;;;;;24.70;99.90;;;;;;4987335;28;20073;-59
2021/07/12 09:24:16;;;;;;;;;;;24.70;99.90;;;;;;4987459;28;20365;-58
2021/07/12 09:26:42;;;;;;;;;;;24.70;99.90;;;;;;4988356;28;20014;-58
2021/07/12 09:29:15;;;;;;;;;;;24.80;99.90;;;;;;4987655;28;20416;-59
2021/07/12 09:31:41;;;;;;;;;;;24.80;99.90;;;;;;4987637;28;19983;-59
2021/07/12 09:34:06;;;;;;;;;;;24.80;99.90;;;;;;4987215;28;20005;-59
2021/07/12 09:36:32;;;;;;;;;;;24.90;99.90;;;;;;4986977;28;19987;-58
2021/07/12 09:38:57;;;;;;;;;;;25.00;99.90;;;;;;4987374;28;20066;-59
2021/07/12 09:41:27;;;;;;;;;;;25.00;99.90;;;;;;5002469;28;19987;-58
2021/07/12 09:44:02;;;;;;;;;;;25.00;99.90;;;;;;4987707;28;19982;-59
2021/07/12 09:46:31;;;;;;;;;;;25.10;99.90;;;;;;4987288;28;20488;-59
2021/07/12 09:49:06;;;;;;;;;;;25.10;99.90;;;;;;4987114;28;20022;-59
2021/07/12 09:51:33;;;;;;;;;;;25.10;99.90;;;;;;4986991;28;20029;-59
2021/07/12 09:54:18;;;;;;;;;;;25.20;99.90;;;;;;4986388;28;20041;-59
2021/07/12 09:56:45;;;;;;;;;;;25.10;99.90;;;;;;4967612;28;19997;-58
2021/07/12 09:59:12;;;;;;;;;;;25.20;99.90;;;;;;4976750;28;19994;-59
2021/07/12 10:01:38;;;;;;;;;;;25.10;99.90;;;;;;4987056;28;20062;-58
2021/07/12 10:04:04;;;;;;;;;;;25.20;99.90;;;;;;4986590;28;20457;-59
2021/07/12 10:06:29;;;;;;;;;;;25.20;99.90;;;;;;4986809;28;20010;-59
2021/07/12 10:08:55;;;;;;;;;;;25.30;99.90;;;;;;4985870;28;20058;-59
2021/07/12 10:11:21;;;;;;;;;;;25.30;99.90;;;;;;4980258;28;20045;-60
2021/07/12 10:13:47;;;;;;;;;;;25.20;99.90;;;;;;4971556;28;19990;-59
2021/07/12 10:16:13;;;;;;;;;;;25.20;99.90;;;;;;4985923;28;20372;-59
2021/07/12 10:18:39;;;;;;;;;;;25.30;99.90;;;;;;4986237;28;20073;-59
2021/07/12 10:21:05;;;;;;;;;;;25.30;99.90;;;;;;5001330;28;20346;-59
2021/07/12 10:23:31;;;;;;;;;;;25.40;99.90;;;;;;4986207;28;19994;-60
2021/07/12 10:25:56;;;;;;;;;;;25.40;99.90;;;;;;4985390;28;20003;-59
2021/07/12 10:28:38;;;;;;;;;;;25.40;99.90;;;;;;4986628;28;20081;-60
2021/07/12 10:31:18;;;;;;;;;;;25.40;99.90;;;;;;4986597;28;20195;-59
2021/07/12 10:33:44;;;;;;;;;;;25.30;99.90;;;;;;4985846;28;20029;-59
2021/07/12 10:36:09;;;;;;;;;;;25.50;99.90;;;;;;4988486;28;20034;-59
2021/07/12 10:38:36;;;;;;;;;;;25.60;99.90;;;;;;4990181;28;20033;-59
2021/07/12 10:41:13;;;;;;;;;;;25.60;99.90;;;;;;4988708;28;20026;-59
2021/07/12 10:43:42;;;;;;;;;;;25.50;99.90;;;;;;4989148;28;19989;-59
2021/07/12 10:46:09;;;;;;;;;;;25.40;99.90;;;;;;4988939;28;20089;-59
2021/07/12 10:48:36;;;;;;;;;;;25.40;99.90;;;;;;4988949;28;20472;-59
2021/07/12 10:51:14;;;;;;;;;;;25.40;99.90;;;;;;4988553;28;20065;-59
2021/07/12 10:53:40;;;;;;;;;;;25.50;99.90;;;;;;4988772;28;19998;-59
2021/07/12 10:56:08;;;;;;;;;;;25.50;99.90;;;;;;4988961;28;19990;-59
2021/07/12 10:58:37;;;;;;;;;;;25.50;99.90;;;;;;4988109;28;19991;-58
2021/07/12 11:01:04;;;;;;;;;;;25.60;99.90;;;;;;4988229;28;20523;-65
2021/07/12 11:03:46;;;;;;;;;;;25.70;99.90;;;;;;4978967;28;20473;-66
2021/07/12 11:06:14;;;;;;;;;;;25.80;99.90;;;;;;4986885;28;20060;-67
2021/07/12 11:08:46;;;;;;;;;;;25.70;99.90;;;;;;4987813;28;19990;-66
2021/07/12 11:11:13;;;;;;;;;;;25.70;99.90;;;;;;4987254;28;19994;-67
2021/07/12 11:13:58;;;;;;;;;;;25.80;99.90;;;;;;4986244;28;19991;-66
2021/07/12 11:16:34;;;;;;;;;;;25.70;99.90;;;;;;4987893;28;20372;-63
2021/07/12 11:19:16;;;;;;;;;;;25.60;99.90;;;;;;4984991;28;19990;-65
2021/07/12 11:21:42;;;;;;;;;;;25.50;99.90;;;;;;4983672;28;20041;-64
2021/07/12 11:24:07;;;;;;;;;;;25.40;99.90;;;;;;4986821;28;20034;-65
2021/07/12 11:26:33;;;;;;;;;;;25.30;99.90;;;;;;4986930;28;20058;-64
2021/07/12 11:29:00;;;;;;;;;;;25.40;99.90;;;;;;4985968;28;20033;-63
2021/07/12 11:31:44;;;;;;;;;;;25.30;99.90;;;;;;4987206;28;20039;-63
2021/07/12 11:34:14;;;;;;;;;;;25.40;99.90;;;;;;4987586;28;20428;-64
2021/07/12 11:36:46;;;;;;;;;;;25.40;99.90;;;;;;4987570;28;19998;-66
2021/07/12 11:39:14;;;;;;;;;;;25.30;99.90;;;;;;4987000;28;19987;-66
2021/07/12 11:41:39;;;;;;;;;;;25.30;99.90;;;;;;4987985;28;19993;-66
2021/07/12 11:44:06;;;;;;;;;;;25.30;99.90;;;;;;4986010;28;19991;-59
2021/07/12 11:46:32;;;;;;;;;;;25.40;99.90;;;;;;4978885;28;20018;-59
2021/07/12 11:49:25;;;;;;;;;;;25.40;99.90;;;;;;4967219;28;19983;-59
2021/07/12 11:51:54;;;;;;;;;;;25.50;99.90;;;;;;4983084;28;19998;-59
2021/07/12 11:54:22;;;;;;;;;;;25.60;99.90;;;;;;4977249;28;20042;-59
2021/07/12 11:57:01;;;;;;;;;;;25.70;99.90;;;;;;4986541;28;19997;-60
2021/07/12 11:59:33;;;;;;;;;;;25.70;99.90;;;;;;4986481;28;20073;-59
2021/07/12 12:02:07;;;;;;;;;;;25.80;99.90;;;;;;4972906;28;19994;-59
2021/07/12 12:04:48;;;;;;;;;;;26.00;99.90;;;;;;4985937;28;20464;-60
2021/07/12 12:07:19;;;;;;;;;;;26.20;99.90;;;;;;4985997;28;19998;-59
2021/07/12 12:09:51;;;;;;;;;;;26.40;99.90;;;;;;4986357;28;20002;-60
2021/07/12 12:12:37;;;;;;;;;;;26.50;99.90;;;;;;4984397;28;19991;-60
2021/07/12 12:15:07;;;;;;;;;;;26.50;99.90;;;;;;4987939;28;20503;-61
2021/07/12 12:17:38;;;;;;;;;;;26.50;99.90;;;;;;4987987;28;19990;-64
2021/07/12 12:20:04;;;;;;;;;;;26.60;99.90;;;;;;4987159;28;20400;-59
2021/07/12 12:22:30;;;;;;;;;;;26.40;99.90;;;;;;4987743;28;20002;-59
2021/07/12 12:24:57;;;;;;;;;;;26.50;99.90;;;;;;4985904;28;20010;-61
2021/07/12 12:27:22;;;;;;;;;;;26.60;99.90;;;;;;4987214;28;19994;-60
2021/07/12 12:29:49;;;;;;;;;;;26.90;99.90;;;;;;4987666;28;19983;-60
2021/07/12 12:32:28;;;;;;;;;;;27.10;99.90;;;;;;4986940;28;20528;-60
2021/07/12 12:34:55;;;;;;;;;;;27.10;99.90;;;;;;4987397;28;20338;-60
2021/07/12 12:37:20;;;;;;;;;;;26.90;99.90;;;;;;4987613;28;20074;-60
2021/07/12 12:39:46;;;;;;;;;;;26.80;99.90;;;;;;5002906;28;20007;-62
2021/07/12 12:42:11;;;;;;;;;;;26.70;99.90;;;;;;4987018;28;20445;-60
2021/07/12 12:44:39;;;;;;;;;;;26.50;99.90;;;;;;4988354;28;20473;-60
2021/07/12 12:47:04;;;;;;;;;;;26.40;99.90;;;;;;4986021;28;19997;-60
2021/07/12 12:49:30;;;;;;;;;;;26.30;99.90;;;;;;4986492;28;19994;-60
2021/07/12 12:51:57;;;;;;;;;;;26.40;99.90;;;;;;4967784;28;20086;-60
2021/07/12 12:54:36;;;;;;;;;;;26.40;99.90;;;;;;4984971;28;20149;-59
2021/07/12 12:57:03;;;;;;;;;;;26.40;99.90;;;;;;4986449;28;19994;-61
2021/07/12 12:59:32;;;;;;;;;;;26.30;99.90;;;;;;4987251;28;20081;-61
2021/07/12 13:02:24;;;;;;;;;;;26.30;99.90;;;;;;4986031;28;20480;-60
2021/07/12 13:04:52;;;;;;;;;;;26.30;99.90;;;;;;4986491;28;19998;-60
2021/07/12 13:07:20;;;;;;;;;;;26.40;99.90;;;;;;4982232;28;20462;-59
2021/07/12 13:09:46;;;;;;;;;;;26.20;99.90;;;;;;4967943;28;20047;-60
2021/07/12 13:12:20;;;;;;;;;;;26.20;99.90;;;;;;4982463;28;20025;-59
2021/07/12 13:14:53;;;;;;;;;;;26.20;99.90;;;;;;4988195;28;19995;-60
2021/07/12 13:17:21;;;;;;;;;;;26.30;99.90;;;;;;4985476;28;20015;-60
2021/07/12 13:19:55;;;;;;;;;;;26.20;99.90;;;;;;4987513;28;19983;-60
2021/07/12 13:22:20;;;;;;;;;;;26.10;99.90;;;;;;4986834;28;19987;-60
2021/07/12 13:24:49;;;;;;;;;;;26.10;99.90;;;;;;4985225;28;20384;-62
2021/07/12 13:27:25;;;;;;;;;;;26.00;99.90;;;;;;4985910;28;20002;-59
2021/07/12 13:29:52;;;;;;;;;;;25.80;99.90;;;;;;4985171;28;20436;-60
2021/07/12 13:32:17;;;;;;;;;;;25.80;99.90;;;;;;4986756;28;20602;-60
2021/07/12 13:34:49;;;;;;;;;;;25.70;99.90;;;;;;4986778;28;20037;-61
2021/07/12 13:37:14;;;;;;;;;;;25.60;99.90;;;;;;4985430;28;20508;-60
2021/07/12 13:39:41;;;;;;;;;;;25.50;99.90;;;;;;4986020;28;20081;-60
2021/07/12 13:42:07;;;;;;;;;;;25.50;99.90;;;;;;4986502;28;20093;-60
2021/07/12 13:44:33;;;;;;;;;;;25.50;99.90;;;;;;4986122;28;20530;-60
2021/07/12 13:46:58;;;;;;;;;;;25.50;99.90;;;;;;4985529;28;20007;-60
2021/07/12 13:49:24;;;;;;;;;;;25.30;99.90;;;;;;4985964;28;20203;-59
2021/07/12 13:51:50;;;;;;;;;;;25.30;99.90;;;;;;4986170;28;20393;-60
2021/07/12 13:54:15;;;;;;;;;;;25.30;99.90;;;;;;4985674;28;20002;-60
2021/07/12 13:56:41;;;;;;;;;;;25.30;99.90;;;;;;4986311;28;19990;-60
2021/07/12 13:59:07;;;;;;;;;;;25.20;99.90;;;;;;4986108;28;20504;-62
2021/07/12 14:01:32;;;;;;;;;;;25.20;99.90;;;;;;4986213;28;20018;-60
2021/07/12 14:03:58;;;;;;;;;;;25.10;99.90;;;;;;4985704;28;20089;-60
2021/07/12 14:06:24;;;;;;;;;;;25.00;99.90;;;;;;4985904;28;20110;-60
2021/07/12 14:08:51;;;;;;;;;;;25.00;99.90;;;;;;4985872;28;19995;-60
2021/07/12 14:11:17;;;;;;;;;;;25.00;99.90;;;;;;4989436;28;20348;-59
2021/07/12 14:13:42;;;;;;;;;;;24.90;99.90;;;;;;4989587;28;19991;-61
2021/07/12 14:16:08;;;;;;;;;;;24.80;99.90;;;;;;4989841;28;19983;-60
2021/07/12 14:18:33;;;;;;;;;;;24.80;99.90;;;;;;4989665;28;19983;-60
2021/07/12 14:20:59;;;;;;;;;;;24.80;99.90;;;;;;4989095;28;20030;-60